createdAt,value
2019-05-25T00:00:10.247Z,99.90
2019-05-25T00:02:39.376Z,99.90
2019-05-25T00:05:08.521Z,99.90
2019-05-25T00:07:37.298Z,99.90
2019-05-25T00:10:07.695Z,99.90
2019-05-25T00:12:36.599Z,99.90
2019-05-25T00:15:08.888Z,99.90
2019-05-25T00:17:37.754Z,99.90
2019-05-25T00:20:07.371Z,99.90
2019-05-25T00:22:36.524Z,99.90
2019-05-25T00:25:07.350Z,99.90
2019-05-25T00:27:36.341Z,99.90
2019-05-25T00:30:07.554Z,99.90
2019-05-25T00:32:36.588Z,99.90
2019-05-25T00:35:08.355Z,99.90
2019-05-25T00:37:37.198Z,99.90
2019-05-25T00:40:07.056Z,99.90
2019-05-25T00:42:36.248Z,99.90
2019-05-25T00:45:07.963Z,99.90
2019-05-25T00:47:38.128Z,99.90
2019-05-25T00:50:11.557Z,99.90
2019-05-25T00:52:40.312Z,99.90
2019-05-25T00:55:09.590Z,99.90
2019-05-25T00:57:38.478Z,99.90
2019-05-25T01:00:08.605Z,99.90
2019-05-25T01:02:40.195Z,99.90
2019-05-25T01:05:10.210Z,99.90
2019-05-25T01:07:39.271Z,99.90
2019-05-25T01:10:08.885Z,99.90
2019-05-25T01:12:37.906Z,99.90
2019-05-25T01:15:09.140Z,99.90
2019-05-25T01:17:37.974Z,99.90
2019-05-25T01:20:09.495Z,99.90
2019-05-25T01:22:38.802Z,99.90
2019-05-25T01:25:08.749Z,99.90
2019-05-25T01:27:39.093Z,99.90
2019-05-25T01:30:09.777Z,99.90
2019-05-25T01:32:38.681Z,99.90
2019-05-25T01:35:11.043Z,99.90
2019-05-25T01:37:40.140Z,99.90
2019-05-25T01:40:09.470Z,99.90
2019-05-25T01:42:38.298Z,99.90
2019-05-25T01:45:07.504Z,99.90
2019-05-25T01:47:36.685Z,99.90
2019-05-25T01:50:06.542Z,99.90
2019-05-25T01:52:35.329Z,99.90
2019-05-25T01:55:05.211Z,99.90
2019-05-25T01:57:34.048Z,99.90
2019-05-25T02:00:03.460Z,99.90
2019-05-25T02:02:32.331Z,99.90
2019-05-25T02:05:01.225Z,99.90
2019-05-25T02:07:30.323Z,99.90
2019-05-25T02:09:59.083Z,99.90
2019-05-25T02:12:27.901Z,99.90
2019-05-25T02:14:56.867Z,99.90
2019-05-25T02:17:26.079Z,99.90
2019-05-25T02:19:54.985Z,99.90
2019-05-25T02:22:23.883Z,99.90
2019-05-25T02:24:52.769Z,99.90
2019-05-25T02:27:21.661Z,99.90
2019-05-25T02:29:50.431Z,99.90
2019-05-25T02:32:19.313Z,99.90
2019-05-25T02:34:48.218Z,99.90
2019-05-25T02:37:17.094Z,99.90
2019-05-25T02:39:45.889Z,99.90
2019-05-25T02:42:14.640Z,99.90
2019-05-25T02:44:43.429Z,99.90
2019-05-25T02:47:12.477Z,99.90
2019-05-25T02:49:41.489Z,99.90
2019-05-25T02:52:10.381Z,99.90
2019-05-25T02:54:39.931Z,99.90
2019-05-25T02:57:08.742Z,99.90
2019-05-25T02:59:37.589Z,99.90
2019-05-25T03:02:06.394Z,99.90
2019-05-25T03:04:35.234Z,99.90
2019-05-25T03:07:04.073Z,99.90
2019-05-25T03:09:34.365Z,99.90
2019-05-25T03:12:03.124Z,99.90
2019-05-25T03:14:31.939Z,99.90
2019-05-25T03:17:00.685Z,99.90
2019-05-25T03:19:30.482Z,99.90
2019-05-25T03:21:59.332Z,99.90
2019-05-25T03:24:28.097Z,99.90
2019-05-25T03:26:56.854Z,99.90
2019-05-25T03:29:26.504Z,99.90
2019-05-25T03:31:55.245Z,99.90
2019-05-25T03:34:24.062Z,99.90
2019-05-25T03:36:52.854Z,99.90
2019-05-25T03:39:21.584Z,99.90
2019-05-25T03:41:50.466Z,99.90
2019-05-25T03:44:19.206Z,99.90
2019-05-25T03:46:47.984Z,99.90
2019-05-25T03:49:17.317Z,99.90
2019-05-25T03:51:46.510Z,99.90
2019-05-25T03:54:15.288Z,99.90
2019-05-25T03:56:44.011Z,99.90
2019-05-25T03:59:12.827Z,99.90
2019-05-25T04:01:41.614Z,99.90
2019-05-25T04:04:10.340Z,99.90
2019-05-25T04:06:39.074Z,99.90
2019-05-25T04:09:07.945Z,99.90
2019-05-25T04:11:36.690Z,99.90
2019-05-25T04:14:05.452Z,99.90
2019-05-25T04:16:34.662Z,99.90
2019-05-25T04:19:03.425Z,99.90
2019-05-25T04:21:32.341Z,99.90
2019-05-25T04:24:01.222Z,99.90
2019-05-25T04:26:30.030Z,99.90
2019-05-25T04:28:58.862Z,99.90
2019-05-25T04:31:27.705Z,99.90
2019-05-25T04:33:56.588Z,99.90
2019-05-25T04:36:25.350Z,99.90
2019-05-25T04:38:54.171Z,99.90
2019-05-25T04:41:23.013Z,99.90
2019-05-25T04:43:51.742Z,99.90
2019-05-25T04:46:21.626Z,99.90
2019-05-25T04:48:50.600Z,99.90
2019-05-25T04:51:19.356Z,99.90
2019-05-25T04:53:48.154Z,99.90
2019-05-25T04:56:16.898Z,99.90
2019-05-25T04:58:45.614Z,99.90
2019-05-25T05:01:14.359Z,99.90
2019-05-25T05:03:43.136Z,99.90
2019-05-25T05:06:12.188Z,99.90
2019-05-25T05:08:40.934Z,99.90
2019-05-25T05:11:09.682Z,99.90
2019-05-25T05:13:38.335Z,99.90
2019-05-25T05:16:07.216Z,99.90
2019-05-25T05:18:36.638Z,99.90
2019-05-25T05:21:05.412Z,99.90
2019-05-25T05:23:34.225Z,99.90
2019-05-25T05:26:05.002Z,99.90
2019-05-25T05:28:33.650Z,99.90
2019-05-25T05:31:02.537Z,99.90
2019-05-25T05:33:31.419Z,99.90
2019-05-25T05:36:00.671Z,99.90
2019-05-25T05:38:30.640Z,99.90
2019-05-25T05:41:00.460Z,99.90
2019-05-25T05:43:29.824Z,99.90
2019-05-25T05:46:00.796Z,99.90
2019-05-25T05:48:32.855Z,99.90
2019-05-25T05:51:01.604Z,99.90
2019-05-25T05:53:31.807Z,99.90
2019-05-25T05:56:00.581Z,99.90
2019-05-25T05:58:29.334Z,99.90
2019-05-25T06:00:58.178Z,99.90
2019-05-25T06:03:26.944Z,99.90
2019-05-25T06:05:55.604Z,99.90
2019-05-25T06:08:24.590Z,99.90
2019-05-25T06:10:53.433Z,99.90
2019-05-25T06:13:22.173Z,99.90
2019-05-25T06:15:50.943Z,99.90
2019-05-25T06:18:19.728Z,99.90
2019-05-25T06:20:48.565Z,99.90
2019-05-25T06:23:17.455Z,99.90
2019-05-25T06:25:46.554Z,99.90
2019-05-25T06:28:18.959Z,99.90
2019-05-25T06:30:45.846Z,99.90
2019-05-25T06:33:14.591Z,99.90
2019-05-25T06:35:43.963Z,99.90
2019-05-25T06:38:12.856Z,99.90
2019-05-25T06:40:42.060Z,98.20
2019-05-25T06:43:11.057Z,97.80
2019-05-25T06:45:39.941Z,96.40
2019-05-25T06:48:09.445Z,95.20
2019-05-25T06:50:38.340Z,95.50
2019-05-25T06:53:07.227Z,94.80
2019-05-25T06:55:35.915Z,94.40
2019-05-25T06:58:05.684Z,94.70
2019-05-25T07:00:34.756Z,97.30
2019-05-25T07:03:03.521Z,98.10
2019-05-25T07:05:32.198Z,98.50
2019-05-25T07:08:01.049Z,99.10
2019-05-25T07:10:29.995Z,99.00
2019-05-25T07:12:58.873Z,98.70
2019-05-25T07:15:29.266Z,97.50
2019-05-25T07:17:58.020Z,96.30
2019-05-25T07:20:26.968Z,95.50
2019-05-25T07:22:55.738Z,96.30
2019-05-25T07:25:24.557Z,97.00
2019-05-25T07:27:59.800Z,97.00
2019-05-25T07:30:24.450Z,96.30
2019-05-25T07:32:53.309Z,95.20
2019-05-25T07:35:22.081Z,96.50
2019-05-25T07:37:51.682Z,98.70
2019-05-25T07:40:20.554Z,99.90
2019-05-25T07:42:49.325Z,99.90
2019-05-25T07:45:18.368Z,99.90
2019-05-25T07:47:47.221Z,99.90
2019-05-25T07:50:19.294Z,99.90
2019-05-25T07:52:48.301Z,99.90
2019-05-25T07:55:18.019Z,99.90
2019-05-25T07:57:46.785Z,99.90
2019-05-25T08:00:16.623Z,99.90
2019-05-25T08:02:45.820Z,99.90
2019-05-25T08:05:15.461Z,99.90
2019-05-25T08:07:44.898Z,99.90
2019-05-25T08:10:14.247Z,99.90
2019-05-25T08:12:43.230Z,99.90
2019-05-25T08:15:12.755Z,99.90
2019-05-25T08:17:42.098Z,99.90
2019-05-25T08:20:11.220Z,99.90
2019-05-25T08:22:40.059Z,99.90
2019-05-25T08:25:09.207Z,99.90
2019-05-25T08:27:38.010Z,99.90
2019-05-25T08:30:09.100Z,99.90
2019-05-25T08:32:37.940Z,99.90
2019-05-25T08:35:07.822Z,99.90
2019-05-25T08:37:36.761Z,99.90
2019-05-25T08:40:09.148Z,99.90
2019-05-25T08:42:38.228Z,99.90
2019-05-25T08:45:08.336Z,99.90
2019-05-25T08:47:37.116Z,99.90
2019-05-25T08:50:08.336Z,99.90
2019-05-25T08:52:37.397Z,99.90
2019-05-25T08:55:07.876Z,99.90
2019-05-25T08:57:36.671Z,99.90
2019-05-25T09:00:09.197Z,99.90
2019-05-25T09:02:38.203Z,98.80
2019-05-25T09:05:07.742Z,99.90
2019-05-25T09:07:36.547Z,99.90
2019-05-25T09:10:09.538Z,99.90
2019-05-25T09:12:38.447Z,99.90
2019-05-25T09:15:08.598Z,99.90
2019-05-25T09:17:37.668Z,99.90
2019-05-25T09:20:09.968Z,99.90
2019-05-25T09:22:38.901Z,99.90
2019-05-25T09:25:09.176Z,99.90
2019-05-25T09:27:38.461Z,99.90
2019-05-25T09:30:08.458Z,99.90
2019-05-25T09:32:37.677Z,99.90
2019-05-25T09:35:08.069Z,99.90
2019-05-25T09:37:36.880Z,99.90
2019-05-25T09:40:16.337Z,99.90
2019-05-25T09:42:45.590Z,99.90
2019-05-25T09:45:14.523Z,99.90
2019-05-25T09:47:43.417Z,99.90
2019-05-25T09:50:14.565Z,99.90
2019-05-25T09:52:43.398Z,98.80
2019-05-25T09:55:13.367Z,99.90
2019-05-25T09:57:42.466Z,99.90
2019-05-25T10:00:13.763Z,99.90
2019-05-25T10:02:43.475Z,99.90
2019-05-25T10:05:13.627Z,99.80
2019-05-25T10:07:42.744Z,99.60
2019-05-25T10:10:13.312Z,99.90
2019-05-25T10:12:42.150Z,99.90
2019-05-25T10:15:11.396Z,99.90
2019-05-25T10:17:40.258Z,99.90
2019-05-25T10:20:09.686Z,99.30
2019-05-25T10:22:38.510Z,98.00
2019-05-25T10:25:08.358Z,98.60
2019-05-25T10:27:37.120Z,97.40
2019-05-25T10:30:08.201Z,96.80
2019-05-25T10:32:37.028Z,97.30
2019-05-25T10:35:07.918Z,97.80
2019-05-25T10:37:36.918Z,98.00
2019-05-25T10:40:07.407Z,98.80
2019-05-25T10:42:36.241Z,99.40
2019-05-25T10:45:07.346Z,99.90
2019-05-25T10:47:36.115Z,99.90
2019-05-25T10:50:09.344Z,99.50
2019-05-25T10:52:38.570Z,99.40
2019-05-25T10:55:09.998Z,98.30
2019-05-25T10:57:39.213Z,98.70
2019-05-25T11:00:10.533Z,97.60
2019-05-25T11:02:39.458Z,97.50
2019-05-25T11:05:08.959Z,97.40
2019-05-25T11:07:38.074Z,96.90
2019-05-25T11:10:08.769Z,96.40
2019-05-25T11:12:38.593Z,96.30
2019-05-25T11:15:09.371Z,96.20
2019-05-25T11:17:38.213Z,98.40
2019-05-25T11:20:08.039Z,98.90
2019-05-25T11:22:36.937Z,96.60
2019-05-25T11:25:07.142Z,95.20
2019-05-25T11:27:36.120Z,97.10
2019-05-25T11:30:09.350Z,97.20
2019-05-25T11:32:37.454Z,95.40
2019-05-25T11:35:07.072Z,97.10
2019-05-25T11:37:35.815Z,96.30
2019-05-25T11:40:07.123Z,96.40
2019-05-25T11:42:35.881Z,95.90
2019-05-25T11:45:07.209Z,96.70
2019-05-25T11:47:35.985Z,94.10
2019-05-25T11:50:09.177Z,96.00
2019-05-25T11:52:39.122Z,96.40
2019-05-25T11:55:10.666Z,94.90
2019-05-25T11:57:40.882Z,96.50
2019-05-25T12:00:24.339Z,95.80
2019-05-25T12:02:43.171Z,96.20
2019-05-25T12:05:14.788Z,94.90
2019-05-25T12:07:44.959Z,94.00
2019-05-25T12:10:14.772Z,93.70
2019-05-25T12:12:43.619Z,93.10
2019-05-25T12:15:12.961Z,91.70
2019-05-25T12:17:41.846Z,92.00
2019-05-25T12:20:11.047Z,92.20
2019-05-25T12:22:40.601Z,93.50
2019-05-25T12:25:10.124Z,92.80
2019-05-25T12:27:39.054Z,94.00
2019-05-25T12:30:08.188Z,93.20
2019-05-25T12:32:37.080Z,94.10
2019-05-25T12:35:08.853Z,93.00
2019-05-25T12:37:37.770Z,93.80
2019-05-25T12:40:07.209Z,92.90
2019-05-25T12:42:36.061Z,91.70
2019-05-25T12:45:05.903Z,93.20
2019-05-25T12:47:34.905Z,92.10
2019-05-25T12:50:05.111Z,93.10
2019-05-25T12:52:33.979Z,93.10
2019-05-25T12:55:02.868Z,92.60
2019-05-25T12:57:31.903Z,93.70
2019-05-25T13:00:14.173Z,92.40
2019-05-25T13:02:32.211Z,90.30
2019-05-25T13:05:01.026Z,93.30
2019-05-25T13:07:30.317Z,91.50
2019-05-25T13:09:59.190Z,92.50
2019-05-25T13:12:28.185Z,93.20
2019-05-25T13:14:57.212Z,94.10
2019-05-25T13:17:26.158Z,93.40
2019-05-25T13:19:55.584Z,94.50
2019-05-25T13:22:25.130Z,94.00
2019-05-25T13:24:54.250Z,94.70
2019-05-25T13:27:23.415Z,93.20
2019-05-25T13:29:52.180Z,92.20
2019-05-25T13:32:21.001Z,92.70
2019-05-25T13:34:49.945Z,91.40
2019-05-25T13:37:18.735Z,90.60
2019-05-25T13:39:47.473Z,92.80
2019-05-25T13:42:16.253Z,92.00
2019-05-25T13:44:45.032Z,92.50
2019-05-25T13:47:13.955Z,93.60
2019-05-25T13:49:42.957Z,93.50
2019-05-25T13:52:11.820Z,93.90
2019-05-25T13:54:40.912Z,94.00
2019-05-25T13:57:09.672Z,93.80
2019-05-25T13:59:38.922Z,93.20
2019-05-25T14:02:07.886Z,94.70
2019-05-25T14:04:36.695Z,94.50
2019-05-25T14:07:06.427Z,95.00
2019-05-25T14:09:35.274Z,94.20
2019-05-25T14:12:04.155Z,94.20
2019-05-25T14:14:33.593Z,94.70
2019-05-25T14:17:02.367Z,94.00
2019-05-25T14:19:31.251Z,95.30
2019-05-25T14:22:00.126Z,93.90
2019-05-25T14:24:28.961Z,94.70
2019-05-25T14:26:57.909Z,95.20
2019-05-25T14:29:26.925Z,94.30
2019-05-25T14:32:44.375Z,94.40
2019-05-25T14:35:14.293Z,95.50
2019-05-25T14:37:43.250Z,95.40
2019-05-25T14:40:12.280Z,95.70
2019-05-25T14:42:41.164Z,95.50
2019-05-25T14:45:10.615Z,95.60
2019-05-25T14:47:39.511Z,95.00
2019-05-25T14:50:09.607Z,94.10
2019-05-25T14:52:38.778Z,94.60
2019-05-25T14:55:08.568Z,94.70
2019-05-25T14:57:37.592Z,96.30
2019-05-25T15:00:08.321Z,95.90
2019-05-25T15:02:37.216Z,95.90
2019-05-25T15:05:06.254Z,96.20
2019-05-25T15:07:35.956Z,96.80
2019-05-25T15:10:07.984Z,96.60
2019-05-25T15:12:36.722Z,96.90
2019-05-25T15:15:08.309Z,97.10
2019-05-25T15:17:37.658Z,97.00
2019-05-25T15:20:08.212Z,98.20
2019-05-25T15:22:37.154Z,97.70
2019-05-25T15:25:07.972Z,98.60
2019-05-25T15:27:36.884Z,99.00
2019-05-25T15:30:07.975Z,99.10
2019-05-25T15:32:36.926Z,98.70
2019-05-25T15:35:06.668Z,98.40
2019-05-25T15:37:35.805Z,99.20
2019-05-25T15:40:07.539Z,99.90
2019-05-25T15:42:36.585Z,98.80
2019-05-25T15:45:07.107Z,99.50
2019-05-25T15:47:36.111Z,99.30
2019-05-25T15:50:08.077Z,99.90
2019-05-25T15:52:38.196Z,98.70
2019-05-25T15:55:10.300Z,99.70
2019-05-25T15:57:39.665Z,99.40
2019-05-25T16:00:14.074Z,99.40
2019-05-25T16:02:43.181Z,99.70
2019-05-25T16:05:12.602Z,99.60
2019-05-25T16:07:44.716Z,99.00
2019-05-25T16:10:14.567Z,99.20
2019-05-25T16:12:43.464Z,99.50
2019-05-25T16:15:14.524Z,99.10
2019-05-25T16:17:43.669Z,99.20
2019-05-25T16:20:14.237Z,99.80
2019-05-25T16:22:51.497Z,99.90
2019-05-25T16:25:20.223Z,99.90
2019-05-25T16:27:49.099Z,99.90
2019-05-25T16:30:18.976Z,99.90
2019-05-25T16:33:10.785Z,99.90
2019-05-25T16:35:18.544Z,99.90
2019-05-25T16:37:49.390Z,99.90
2019-05-25T16:40:18.096Z,99.90
2019-05-25T16:42:47.063Z,99.90
2019-05-25T16:45:17.389Z,99.90
2019-05-25T16:47:46.277Z,99.90
2019-05-25T16:50:16.890Z,99.90
2019-05-25T16:52:45.914Z,99.90
2019-05-25T16:55:15.682Z,99.90
2019-05-25T16:57:44.576Z,99.90
2019-05-25T17:00:15.106Z,99.90
2019-05-25T17:02:43.932Z,99.90
2019-05-25T17:05:13.059Z,99.90
2019-05-25T17:07:41.833Z,99.90
2019-05-25T17:10:11.030Z,99.90
2019-05-25T17:12:39.776Z,99.90
2019-05-25T17:15:08.839Z,99.90
2019-05-25T17:17:37.793Z,99.90
2019-05-25T17:20:06.995Z,99.90
2019-05-25T17:22:36.221Z,99.90
2019-05-25T17:25:06.890Z,99.90
2019-05-25T17:27:36.030Z,99.90
2019-05-25T17:30:07.338Z,99.90
2019-05-25T17:32:36.269Z,99.90
2019-05-25T17:35:06.159Z,99.90
2019-05-25T17:37:35.005Z,99.90
2019-05-25T17:40:08.040Z,99.90
2019-05-25T17:42:37.196Z,99.90
2019-05-25T17:45:07.491Z,99.90
2019-05-25T17:47:36.513Z,99.90
2019-05-25T17:50:06.898Z,99.90
2019-05-25T17:52:35.808Z,99.90
2019-05-25T17:55:07.740Z,99.90
2019-05-25T17:57:36.618Z,99.90
2019-05-25T18:00:07.463Z,99.90
2019-05-25T18:02:36.345Z,99.90
2019-05-25T18:05:07.275Z,99.90
2019-05-25T18:07:37.798Z,99.90
2019-05-25T18:10:09.665Z,99.90
2019-05-25T18:12:38.821Z,99.90
2019-05-25T18:15:10.549Z,99.90
2019-05-25T18:17:39.461Z,99.90
2019-05-25T18:20:10.220Z,99.90
2019-05-25T18:22:41.530Z,99.90
2019-05-25T18:25:10.442Z,99.90
2019-05-25T18:27:39.545Z,99.90
2019-05-25T18:30:10.576Z,99.90
2019-05-25T18:32:39.368Z,99.90
2019-05-25T18:35:08.466Z,99.90
2019-05-25T18:37:37.216Z,99.90
2019-05-25T18:40:09.946Z,99.90
2019-05-25T18:42:40.995Z,99.90
2019-05-25T18:45:10.632Z,99.90
2019-05-25T18:47:39.692Z,99.90
2019-05-25T18:50:10.278Z,99.90
2019-05-25T18:52:39.310Z,99.90
2019-05-25T18:55:09.028Z,99.90
2019-05-25T18:57:37.864Z,99.90
2019-05-25T19:00:07.835Z,99.90
2019-05-25T19:02:36.899Z,99.90
2019-05-25T19:05:07.128Z,99.90
2019-05-25T19:07:36.345Z,99.90
2019-05-25T19:10:06.996Z,99.90
2019-05-25T19:12:35.873Z,99.90
2019-05-25T19:15:11.016Z,99.90
2019-05-25T19:17:39.968Z,99.90
2019-05-25T19:20:09.780Z,99.90
2019-05-25T19:22:38.981Z,99.90
2019-05-25T19:25:09.391Z,99.90
2019-05-25T19:27:41.447Z,99.90
2019-05-25T19:30:11.351Z,99.90
2019-05-25T19:32:43.191Z,99.90
2019-05-25T19:35:12.592Z,99.90
2019-05-25T19:37:42.638Z,99.90
2019-05-25T19:40:12.326Z,99.90
2019-05-25T19:42:48.798Z,99.90
2019-05-25T19:45:14.283Z,99.90
2019-05-25T19:47:44.244Z,99.90
2019-05-25T19:50:14.289Z,99.90
2019-05-25T19:52:43.199Z,99.90
2019-05-25T19:55:13.866Z,99.90
2019-05-25T19:57:45.413Z,99.90
2019-05-25T20:00:15.129Z,99.90
2019-05-25T20:02:44.264Z,99.90
2019-05-25T20:05:16.691Z,99.90
2019-05-25T20:07:44.330Z,99.90
2019-05-25T20:10:13.469Z,99.90
2019-05-25T20:12:42.456Z,99.90
2019-05-25T20:15:11.968Z,99.90
2019-05-25T20:17:40.774Z,99.90
2019-05-25T20:20:09.746Z,99.90
2019-05-25T20:22:38.852Z,99.90
2019-05-25T20:25:08.018Z,99.90
2019-05-25T20:27:36.838Z,99.90
2019-05-25T20:30:08.023Z,99.90
2019-05-25T20:32:37.151Z,99.90
2019-05-25T20:35:08.631Z,99.90
2019-05-25T20:37:37.524Z,99.90
2019-05-25T20:40:10.198Z,99.90
2019-05-25T20:42:39.405Z,99.90
2019-05-25T20:45:09.152Z,99.90
2019-05-25T20:47:37.950Z,99.90
2019-05-25T20:50:08.758Z,99.90
2019-05-25T20:52:37.711Z,99.90
2019-05-25T20:55:11.034Z,99.90
2019-05-25T20:57:40.255Z,99.90
2019-05-25T21:00:10.875Z,99.90
2019-05-25T21:02:39.622Z,99.90
2019-05-25T21:05:09.056Z,99.90
2019-05-25T21:07:37.893Z,99.90
2019-05-25T21:10:08.064Z,99.90
2019-05-25T21:12:38.200Z,99.90
2019-05-25T21:15:09.332Z,99.90
2019-05-25T21:17:38.229Z,99.90
2019-05-25T21:20:07.582Z,99.90
2019-05-25T21:22:36.887Z,99.90
2019-05-25T21:25:09.416Z,99.90
2019-05-25T21:27:38.294Z,99.90
2019-05-25T21:30:09.829Z,99.90
2019-05-25T21:32:38.880Z,99.90
2019-05-25T21:35:08.527Z,99.90
2019-05-25T21:37:37.392Z,99.90
2019-05-25T21:40:08.359Z,99.90
2019-05-25T21:42:37.590Z,99.90
2019-05-25T21:45:07.365Z,99.90
2019-05-25T21:47:36.300Z,99.90
2019-05-25T21:50:07.195Z,99.90
2019-05-25T21:52:36.318Z,99.90
2019-05-25T21:55:05.865Z,99.90
2019-05-25T21:57:34.647Z,99.90
2019-05-25T22:00:04.838Z,99.90
2019-05-25T22:02:33.745Z,99.90
2019-05-25T22:05:02.952Z,99.90
2019-05-25T22:07:32.245Z,99.90
2019-05-25T22:10:01.210Z,99.90
2019-05-25T22:12:30.105Z,99.90
2019-05-25T22:15:00.144Z,99.90
2019-05-25T22:17:29.254Z,99.90
2019-05-25T22:19:58.525Z,99.90
2019-05-25T22:22:27.441Z,99.90
2019-05-25T22:24:56.400Z,99.90
2019-05-25T22:27:25.422Z,99.90
2019-05-25T22:29:56.017Z,99.90
2019-05-25T22:32:24.742Z,99.90
2019-05-25T22:34:53.947Z,99.90
2019-05-25T22:37:26.735Z,99.90
2019-05-25T22:39:55.623Z,99.90
2019-05-25T22:42:24.927Z,99.90
2019-05-25T22:44:54.021Z,99.90
2019-05-25T22:47:23.328Z,99.90
2019-05-25T22:49:52.423Z,99.90
2019-05-25T22:52:21.314Z,99.90
2019-05-25T22:54:50.170Z,99.90
2019-05-25T22:57:19.074Z,99.90
2019-05-25T22:59:48.191Z,99.90
2019-05-25T23:02:17.697Z,99.90
2019-05-25T23:04:46.591Z,99.90
2019-05-25T23:07:15.481Z,99.90
2019-05-25T23:09:44.457Z,99.90
2019-05-25T23:12:13.471Z,99.90
2019-05-25T23:14:44.158Z,99.90
2019-05-25T23:17:12.892Z,99.90
2019-05-25T23:19:41.785Z,99.90
2019-05-25T23:22:10.673Z,99.90
2019-05-25T23:24:39.544Z,99.90
2019-05-25T23:27:08.665Z,99.90
2019-05-25T23:29:37.555Z,99.90
2019-05-25T23:32:06.400Z,99.90
2019-05-25T23:34:35.346Z,99.90
2019-05-25T23:37:14.210Z,99.90
2019-05-25T23:39:34.595Z,99.90
2019-05-25T23:42:03.577Z,99.90
2019-05-25T23:44:32.748Z,99.90
2019-05-25T23:47:01.645Z,99.90
2019-05-25T23:49:30.536Z,99.90
2019-05-25T23:51:59.295Z,99.90
2019-05-25T23:54:28.321Z,99.90
2019-05-25T23:56:57.412Z,99.90
2019-05-25T23:59:26.386Z,99.90
